Time;durP1;ratioP1;P1;durP2;ratioP2;P2;SDS_P1;SDS_P2;PMS_P1;PMS_P2;Temp;Humidity;BMP_temperature;BMP_pressure;BME280_temperature;BME280_humidity;BME280_pressure;Samples;Min_cycle;Max_cycle;Signal;HPM_P1;HPM_P2
2022/11/04 00:02:02;;;;;;;0.70;0.47;;;12.70;99.90;;;;;;5034313;28;20300;-75
2022/11/04 00:04:31;;;;;;;0.52;0.40;;;12.70;99.90;;;;;;5029928;28;20181;-75
2022/11/04 00:06:57;;;;;;;0.47;0.40;;;12.60;99.90;;;;;;5031814;28;20228;-74
2022/11/04 00:09:28;;;;;;;0.60;0.50;;;12.60;99.90;;;;;;5032789;28;20170;-75
2022/11/04 00:14:38;;;;;;;0.45;0.30;;;12.60;99.90;;;;;;5038176;28;20215;-74
2022/11/04 00:17:21;;;;;;;0.73;0.47;;;12.60;99.90;;;;;;5042993;28;20272;-74
2022/11/04 00:33:49;;;;;;;0.85;0.50;;;12.40;99.90;;;;;;5035022;28;20240;-75
2022/11/04 00:36:16;;;;;;;0.55;0.50;;;12.40;99.90;;;;;;5043567;28;20217;-74
2022/11/04 00:38:41;;;;;;;0.57;0.40;;;12.40;99.90;;;;;;5033822;28;20273;-75
2022/11/04 00:41:24;;;;;;;0.45;0.45;;;12.30;99.90;;;;;;5029369;28;20289;-73
2022/11/04 00:44:01;;;;;;;0.55;0.47;;;12.30;99.90;;;;;;5045110;28;20243;-74
2022/11/04 00:46:29;;;;;;;0.70;0.50;;;12.30;99.90;;;;;;5036439;28;20196;-74
2022/11/04 00:48:54;;;;;;;1.95;0.52;;;12.30;99.90;;;;;;5043434;28;20202;-74
2022/11/04 00:51:21;;;;;;;0.85;0.45;;;12.20;99.90;;;;;;5035326;28;20209;-73
2022/11/04 00:53:50;;;;;;;1.17;0.68;;;12.20;99.90;;;;;;5026301;28;20206;-74
2022/11/04 00:56:20;;;;;;;0.38;0.38;;;12.20;99.90;;;;;;5033045;28;20182;-75
2022/11/04 00:58:49;;;;;;;0.50;0.43;;;12.20;99.90;;;;;;5033022;28;20194;-74
2022/11/04 01:01:20;;;;;;;0.40;0.40;;;12.20;99.90;;;;;;5036163;28;20218;-74
2022/11/04 01:03:48;;;;;;;0.60;0.45;;;12.10;99.90;;;;;;5048809;28;20272;-74
2022/11/04 01:06:18;;;;;;;0.40;0.38;;;12.10;99.90;;;;;;5059411;28;20174;-76
2022/11/04 01:08:43;;;;;;;1.33;0.60;;;12.10;99.90;;;;;;5037076;28;20219;-72
2022/11/04 01:11:10;;;;;;;0.50;0.43;;;12.10;99.90;;;;;;5038288;28;20244;-74
2022/11/04 01:13:37;;;;;;;1.45;0.52;;;12.10;99.90;;;;;;5029849;28;20174;-73
2022/11/04 01:16:05;;;;;;;0.52;0.50;;;12.10;99.90;;;;;;5031926;28;20241;-74
2022/11/04 01:18:31;;;;;;;0.65;0.40;;;12.10;99.90;;;;;;5036110;28;20219;-74
2022/11/04 01:21:05;;;;;;;0.50;0.50;;;12.00;99.90;;;;;;5028552;28;20214;-73
2022/11/04 01:23:33;;;;;;;0.70;0.60;;;12.00;99.90;;;;;;5051461;28;20178;-71
2022/11/04 01:25:59;;;;;;;0.90;0.50;;;12.00;99.90;;;;;;5034409;28;20174;-70
2022/11/04 01:28:24;;;;;;;0.82;0.45;;;12.00;99.90;;;;;;5042036;28;20173;-73
2022/11/04 01:30:50;;;;;;;0.55;0.45;;;11.90;99.90;;;;;;5041031;28;20241;-72
2022/11/04 01:33:16;;;;;;;1.15;0.47;;;12.00;99.90;;;;;;5035859;28;20199;-73
2022/11/04 01:35:42;;;;;;;0.57;0.50;;;11.90;99.90;;;;;;5060731;28;20188;-72
2022/11/04 01:38:07;;;;;;;0.30;0.30;;;11.90;99.90;;;;;;5043137;28;20182;-73
2022/11/04 01:40:41;;;;;;;0.60;0.45;;;11.90;99.90;;;;;;5039141;28;20220;-74
2022/11/04 01:43:21;;;;;;;0.45;0.40;;;11.90;99.90;;;;;;5030143;28;20217;-74
2022/11/04 01:45:57;;;;;;;0.70;0.40;;;11.90;99.90;;;;;;5043749;28;21511;-73
2022/11/04 01:48:30;;;;;;;0.50;0.50;;;11.90;99.90;;;;;;5051898;28;20174;-73
2022/11/04 01:51:01;;;;;;;2.17;0.43;;;11.90;99.90;;;;;;5033169;28;20213;-73
2022/11/04 01:53:31;;;;;;;0.90;0.63;;;11.90;99.90;;;;;;5034524;28;20190;-74
2022/11/04 01:56:00;;;;;;;1.13;0.80;;;11.80;99.90;;;;;;5034378;28;20265;-73
2022/11/04 01:58:30;;;;;;;0.65;0.60;;;11.80;99.90;;;;;;5030038;28;20217;-73
2022/11/04 02:00:56;;;;;;;0.80;0.55;;;11.90;99.90;;;;;;5030205;28;20309;-74
2022/11/04 02:03:35;;;;;;;0.47;0.47;;;11.90;99.90;;;;;;5042555;28;20213;-74
2022/11/04 02:06:04;;;;;;;0.60;0.40;;;11.80;99.90;;;;;;5056103;28;20182;-73
2022/11/04 02:08:30;;;;;;;0.38;0.30;;;11.80;99.90;;;;;;5051923;28;20204;-73
2022/11/04 02:11:02;;;;;;;1.05;0.60;;;11.80;99.90;;;;;;5022390;28;20257;-75
2022/11/04 02:13:31;;;;;;;0.95;0.50;;;11.80;99.90;;;;;;5035876;28;20277;-74
2022/11/04 02:16:26;;;;;;;0.87;0.50;;;11.70;99.90;;;;;;5028619;28;20239;-75
2022/11/04 02:19:23;;;;;;;0.60;0.32;;;11.70;99.90;;;;;;5056691;28;20226;-74
2022/11/04 02:22:22;;;;;;;0.90;0.43;;;11.70;99.90;;;;;;5052808;28;20198;-74
2022/11/04 02:25:25;;;;;;;0.73;0.45;;;11.70;99.90;;;;;;5034181;28;20226;-73
2022/11/04 02:28:15;;;;;;;0.70;0.43;;;11.70;99.90;;;;;;5032164;28;20541;-73
2022/11/04 02:30:49;;;;;;;0.60;0.40;;;11.60;99.90;;;;;;5030199;28;20198;-73
2022/11/04 02:33:24;;;;;;;1.15;0.50;;;11.60;99.90;;;;;;5052244;28;20189;-73
2022/11/04 02:36:27;;;;;;;1.43;0.70;;;11.60;99.90;;;;;;5050468;28;20272;-73
2022/11/04 02:39:18;;;;;;;1.27;0.60;;;11.60;99.90;;;;;;5047804;28;20192;-73
2022/11/04 02:42:13;;;;;;;1.48;0.60;;;11.60;99.90;;;;;;5024213;28;20218;-73
2022/11/04 02:45:06;;;;;;;1.55;0.60;;;11.50;99.90;;;;;;5045682;28;20205;-72
2022/11/04 02:47:41;;;;;;;1.00;0.50;;;11.50;99.90;;;;;;5026754;28;20190;-74
2022/11/04 02:50:13;;;;;;;1.93;0.77;;;11.50;99.90;;;;;;5020188;28;20193;-74
2022/11/04 02:53:17;;;;;;;1.35;0.50;;;11.50;99.90;;;;;;5046862;28;20194;-76
2022/11/04 02:55:49;;;;;;;1.57;0.50;;;11.50;99.90;;;;;;5045594;28;20182;-73
2022/11/04 02:58:23;;;;;;;2.10;0.73;;;11.40;99.90;;;;;;5034959;28;20210;-74
2022/11/04 03:00:51;;;;;;;1.37;0.50;;;11.40;99.90;;;;;;5033035;28;20201;-74
2022/11/04 03:03:25;;;;;;;2.77;0.73;;;11.40;99.90;;;;;;5057882;28;20181;-72
2022/11/04 03:05:57;;;;;;;1.73;0.53;;;11.50;99.90;;;;;;5034934;28;20203;-73
2022/11/04 03:08:40;;;;;;;2.53;0.60;;;11.40;99.90;;;;;;5025749;28;20183;-73
2022/11/04 03:11:21;;;;;;;2.03;0.57;;;11.40;99.90;;;;;;5043909;28;20212;-73
2022/11/04 03:13:56;;;;;;;0.93;0.70;;;11.40;99.90;;;;;;5033791;28;20182;-73
2022/11/04 03:16:42;;;;;;;1.17;0.60;;;11.40;99.90;;;;;;5031685;28;20209;-72
2022/11/04 03:19:48;;;;;;;2.00;0.80;;;11.40;99.90;;;;;;5027590;28;20214;-73
2022/11/04 03:22:19;;;;;;;1.70;0.80;;;11.40;99.90;;;;;;5039279;28;20209;-73
2022/11/04 03:24:46;;;;;;;0.80;0.40;;;11.40;99.90;;;;;;5028757;28;20268;-73
2022/11/04 03:27:15;;;;;;;1.67;0.70;;;11.40;99.90;;;;;;5039774;28;20195;-72
2022/11/04 03:29:55;;;;;;;1.00;0.60;;;11.30;99.90;;;;;;5033710;28;20182;-74
2022/11/04 03:32:42;;;;;;;1.20;0.57;;;11.30;99.90;;;;;;5050873;28;20417;-74
2022/11/04 03:35:09;;;;;;;1.10;0.50;;;11.30;99.90;;;;;;5032166;28;20253;-73
2022/11/04 03:37:37;;;;;;;2.60;0.70;;;11.30;99.90;;;;;;5033932;28;20214;-71
2022/11/04 03:40:04;;;;;;;1.87;0.60;;;11.20;99.90;;;;;;5019861;28;20228;-72
2022/11/04 03:42:34;;;;;;;2.40;0.80;;;11.20;99.90;;;;;;5033476;28;20269;-74
2022/11/04 03:45:00;;;;;;;1.60;0.60;;;11.20;99.90;;;;;;5037022;28;20181;-73
2022/11/04 03:47:28;;;;;;;0.93;0.50;;;11.20;99.90;;;;;;5030001;28;20170;-73
2022/11/04 03:50:32;;;;;;;1.23;0.40;;;11.10;99.90;;;;;;5015167;28;20206;-73
2022/11/04 03:53:01;;;;;;;1.10;0.43;;;11.10;99.90;;;;;;5031810;28;20211;-73
2022/11/04 03:55:54;;;;;;;2.40;0.70;;;11.10;99.90;;;;;;5043759;28;20199;-73
2022/11/04 03:58:32;;;;;;;0.93;0.50;;;11.10;99.90;;;;;;5035726;28;20262;-73
2022/11/04 04:01:18;;;;;;;2.80;0.70;;;11.00;99.90;;;;;;5031804;28;20217;-73
2022/11/04 04:04:19;;;;;;;2.97;0.67;;;11.00;99.90;;;;;;5022569;28;20291;-77
2022/11/04 04:06:47;;;;;;;2.50;0.90;;;11.00;99.90;;;;;;5026164;28;20277;-79
2022/11/04 04:09:34;;;;;;;1.00;0.60;;;10.90;99.90;;;;;;5027518;28;20205;-76
2022/11/04 04:12:06;;;;;;;2.43;0.80;;;10.80;99.90;;;;;;5047334;28;20217;-78
2022/11/04 04:14:39;;;;;;;1.50;0.60;;;10.70;99.90;;;;;;5018063;28;20236;-77
2022/11/04 04:17:30;;;;;;;2.73;0.60;;;10.70;99.90;;;;;;5027509;28;20174;-77
2022/11/04 04:20:14;;;;;;;2.77;0.60;;;10.60;99.90;;;;;;5050455;28;20182;-77
2022/11/04 04:22:46;;;;;;;1.23;0.53;;;10.60;99.90;;;;;;5066593;28;20173;-77
2022/11/04 04:28:00;;;;;;;1.07;0.53;;;10.50;99.90;;;;;;5034544;28;20347;-76
2022/11/04 04:30:26;;;;;;;1.27;0.90;;;10.50;99.90;;;;;;5046960;28;20260;-76
2022/11/04 04:33:03;;;;;;;2.40;1.27;;;10.40;99.90;;;;;;5058042;28;20193;-76
2022/11/04 04:35:42;;;;;;;2.37;1.27;;;10.40;99.90;;;;;;5037013;28;20206;-77
2022/11/04 04:46:51;;;;;;;3.30;1.07;;;10.20;99.90;;;;;;5028256;28;20185;-77
2022/11/04 04:49:19;;;;;;;1.83;1.00;;;10.20;99.90;;;;;;5044369;28;20189;-77
2022/11/04 04:51:51;;;;;;;1.50;0.90;;;10.20;99.90;;;;;;5044743;28;20241;-77
2022/11/04 04:54:16;;;;;;;1.20;0.80;;;10.20;99.90;;;;;;5038643;28;20182;-77
2022/11/04 04:56:42;;;;;;;2.97;1.13;;;10.20;99.90;;;;;;5038827;28;20208;-75
2022/11/04 04:59:11;;;;;;;1.80;1.00;;;10.20;99.90;;;;;;5042872;28;20181;-76
2022/11/04 05:01:36;;;;;;;1.40;0.90;;;10.20;99.90;;;;;;5036157;28;20219;-77
2022/11/04 05:04:04;;;;;;;1.30;0.70;;;10.20;99.90;;;;;;5032684;28;20204;-76
2022/11/04 05:06:30;;;;;;;7.00;5.17;;;10.10;99.90;;;;;;5041676;28;20186;-75
2022/11/04 05:08:55;;;;;;;11.27;4.93;;;10.20;99.90;;;;;;5054836;28;20186;-75
2022/11/04 05:11:23;;;;;;;5.43;3.33;;;10.10;99.90;;;;;;5050716;28;20189;-76
2022/11/04 05:13:49;;;;;;;3.87;2.20;;;10.10;99.90;;;;;;5042735;28;20185;-77
2022/11/04 05:16:14;;;;;;;3.47;1.97;;;10.00;99.90;;;;;;5036680;28;20240;-77
2022/11/04 05:18:42;;;;;;;3.83;1.60;;;10.00;99.90;;;;;;5029940;28;20318;-77
2022/11/04 05:21:12;;;;;;;2.37;1.40;;;10.00;99.90;;;;;;5050155;28;20259;-78
2022/11/04 05:23:38;;;;;;;2.93;1.30;;;10.00;99.90;;;;;;5033554;28;20217;-78
2022/11/04 05:26:06;;;;;;;2.60;1.10;;;10.00;99.90;;;;;;5035248;28;20178;-76
2022/11/04 05:28:32;;;;;;;1.63;0.80;;;9.90;99.90;;;;;;5028138;28;20179;-77
2022/11/04 05:31:03;;;;;;;2.23;0.90;;;9.90;99.90;;;;;;5043032;28;20177;-77
2022/11/04 05:33:28;;;;;;;1.87;0.90;;;9.90;99.90;;;;;;5029399;28;20194;-77
2022/11/04 05:35:54;;;;;;;2.47;0.90;;;9.90;99.90;;;;;;5030729;28;20181;-77
2022/11/04 05:38:24;;;;;;;2.33;1.20;;;9.90;99.90;;;;;;5022470;28;20221;-77
2022/11/04 05:40:50;;;;;;;1.27;0.80;;;9.90;99.90;;;;;;5034296;28;20198;-77
2022/11/04 05:43:16;;;;;;;2.20;0.97;;;9.90;99.90;;;;;;5038010;28;20178;-76
2022/11/04 05:45:45;;;;;;;2.50;1.10;;;9.80;99.90;;;;;;5055983;28;20224;-75
2022/11/04 05:48:13;;;;;;;2.10;1.00;;;9.80;99.90;;;;;;5037958;28;20178;-77
2022/11/04 05:50:40;;;;;;;5.90;3.23;;;9.80;99.90;;;;;;5033418;28;20210;-76
2022/11/04 05:53:06;;;;;;;2.03;1.40;;;9.80;99.90;;;;;;5051112;28;20178;-76
2022/11/04 05:55:32;;;;;;;2.07;1.20;;;9.80;99.90;;;;;;5032606;28;20197;-76
2022/11/04 05:58:00;;;;;;;1.73;1.10;;;9.80;99.90;;;;;;5032490;28;20185;-76
2022/11/04 06:00:34;;;;;;;1.77;0.90;;;9.80;99.90;;;;;;5034685;28;20194;-76
2022/11/04 06:03:08;;;;;;;1.17;0.80;;;9.70;99.90;;;;;;5032689;28;20195;-75
2022/11/04 06:05:36;;;;;;;2.23;1.10;;;9.70;99.90;;;;;;5062122;28;20198;-76
2022/11/04 06:08:08;;;;;;;2.70;0.90;;;9.80;99.90;;;;;;5054629;28;20201;-76
2022/11/04 06:10:34;;;;;;;1.30;0.80;;;9.70;99.90;;;;;;5039627;28;20259;-76
2022/11/04 06:13:00;;;;;;;1.40;0.90;;;9.80;99.90;;;;;;5047520;28;20214;-75
2022/11/04 06:15:28;;;;;;;2.27;0.90;;;9.70;99.90;;;;;;5040987;28;20209;-76
2022/11/04 06:17:53;;;;;;;1.90;1.00;;;9.80;99.90;;;;;;5024690;28;20186;-76
2022/11/04 06:20:21;;;;;;;1.40;0.90;;;9.70;99.90;;;;;;5030025;28;20213;-76
2022/11/04 06:22:47;;;;;;;2.43;0.83;;;9.70;99.90;;;;;;5032204;28;20178;-75
2022/11/04 06:25:15;;;;;;;1.73;0.70;;;9.70;99.90;;;;;;5027875;28;20364;-76
2022/11/04 06:27:41;;;;;;;1.47;0.80;;;9.70;99.90;;;;;;5037977;28;20257;-75
2022/11/04 06:30:09;;;;;;;3.47;0.90;;;9.70;99.90;;;;;;5071013;28;20191;-75
2022/11/04 06:32:35;;;;;;;1.77;0.90;;;9.70;99.90;;;;;;5037731;28;20205;-74
2022/11/04 06:35:01;;;;;;;2.20;0.80;;;9.70;99.90;;;;;;5044809;28;20181;-75
2022/11/04 06:37:26;;;;;;;3.33;1.10;;;9.70;99.90;;;;;;5068441;28;20182;-75
2022/11/04 06:39:54;;;;;;;1.53;0.93;;;9.70;99.90;;;;;;5056774;28;20229;-76
2022/11/04 06:42:20;;;;;;;1.93;0.90;;;9.70;99.90;;;;;;5056323;28;20217;-76
2022/11/04 06:44:46;;;;;;;3.17;0.97;;;9.70;99.90;;;;;;5031988;28;20182;-76
2022/11/04 06:47:16;;;;;;;1.43;0.80;;;9.70;99.90;;;;;;5037078;28;20189;-75
2022/11/04 06:49:44;;;;;;;1.93;0.90;;;9.80;99.90;;;;;;5036094;28;20264;-76
2022/11/04 06:52:12;;;;;;;1.77;0.80;;;9.80;99.90;;;;;;5037739;28;20185;-76
2022/11/04 06:54:40;;;;;;;1.40;1.00;;;9.90;99.90;;;;;;5045391;28;20182;-74
2022/11/04 06:57:07;;;;;;;1.67;0.93;;;9.90;99.90;;;;;;5054521;28;20189;-75
2022/11/04 06:59:38;;;;;;;1.37;0.93;;;10.00;99.90;;;;;;5036694;28;20182;-75
2022/11/04 07:02:06;;;;;;;2.30;1.20;;;10.00;99.90;;;;;;5034494;28;20202;-75
2022/11/04 07:04:32;;;;;;;2.03;0.97;;;10.00;99.90;;;;;;5043024;28;20178;-76
2022/11/04 07:07:00;;;;;;;2.50;1.00;;;10.10;99.90;;;;;;5040277;28;20257;-75
2022/11/04 07:09:26;;;;;;;4.93;1.20;;;10.20;99.90;;;;;;5061882;28;20311;-75
2022/11/04 07:11:51;;;;;;;2.57;1.10;;;10.30;99.90;;;;;;5035393;28;20265;-75
2022/11/04 07:14:19;;;;;;;2.83;1.10;;;10.30;99.90;;;;;;5036260;28;20263;-76
2022/11/04 07:16:47;;;;;;;1.23;1.00;;;10.40;99.90;;;;;;5038142;28;20261;-76
2022/11/04 07:19:16;;;;;;;2.77;1.17;;;10.40;99.90;;;;;;5038423;28;20280;-76
2022/11/04 07:21:41;;;;;;;3.27;1.10;;;10.50;99.90;;;;;;5073747;28;20215;-76
2022/11/04 07:24:09;;;;;;;3.90;1.30;;;10.50;99.90;;;;;;5053050;28;20178;-75
2022/11/04 07:26:37;;;;;;;2.17;1.23;;;10.60;99.90;;;;;;5039965;28;20177;-75
2022/11/04 07:29:05;;;;;;;2.03;1.07;;;10.60;99.90;;;;;;5038232;28;20250;-75
2022/11/04 07:31:31;;;;;;;2.77;1.00;;;10.60;99.90;;;;;;5031157;28;20206;-75
2022/11/04 07:34:02;;;;;;;2.10;1.20;;;10.70;99.90;;;;;;5017745;28;20179;-75
2022/11/04 07:36:32;;;;;;;2.03;1.10;;;10.70;99.90;;;;;;5017917;28;20202;-75
2022/11/04 07:38:57;;;;;;;4.13;1.20;;;10.80;99.90;;;;;;5029751;28;20186;-76
2022/11/04 07:41:26;;;;;;;3.40;1.33;;;10.80;99.90;;;;;;5036231;28;20201;-75
2022/11/04 07:43:52;;;;;;;2.70;1.10;;;10.90;99.90;;;;;;5023572;28;20222;-76
2022/11/04 07:46:20;;;;;;;2.47;1.10;;;11.00;99.90;;;;;;5053961;28;20213;-76
2022/11/04 07:48:46;;;;;;;2.17;1.00;;;11.00;99.90;;;;;;5022362;28;20191;-75
2022/11/04 07:51:17;;;;;;;3.70;1.10;;;11.00;99.90;;;;;;5035788;28;20258;-75
2022/11/04 07:53:43;;;;;;;3.88;1.30;;;11.10;99.90;;;;;;5024618;28;20162;-75
2022/11/04 07:56:10;;;;;;;4.27;1.20;;;11.10;99.90;;;;;;5030785;28;20190;-75
2022/11/04 07:58:36;;;;;;;2.57;1.20;;;11.20;99.90;;;;;;5063986;28;20208;-74
2022/11/04 08:01:08;;;;;;;2.80;1.00;;;11.20;99.90;;;;;;5060622;28;20202;-74
2022/11/04 08:03:35;;;;;;;2.50;1.10;;;11.30;99.90;;;;;;5061331;28;20196;-74
2022/11/04 08:06:06;;;;;;;2.83;1.20;;;11.30;99.90;;;;;;5060694;28;20266;-75
2022/11/04 08:08:32;;;;;;;2.65;1.00;;;11.40;99.90;;;;;;5046644;28;20199;-75
2022/11/04 08:11:05;;;;;;;3.40;1.35;;;11.40;99.90;;;;;;5069544;28;20267;-76
2022/11/04 08:13:36;;;;;;;1.67;1.10;;;11.50;99.90;;;;;;5068995;28;20304;-76
2022/11/04 08:16:13;;;;;;;3.53;1.15;;;11.60;99.90;;;;;;5086280;28;20184;-77
2022/11/04 08:18:41;;;;;;;2.58;1.13;;;11.60;99.90;;;;;;5077243;28;20374;-76
2022/11/04 08:21:10;;;;;;;2.83;1.15;;;11.70;99.90;;;;;;5062708;28;20193;-76
2022/11/04 08:23:36;;;;;;;2.67;1.40;;;11.70;99.90;;;;;;5050550;28;20194;-76
2022/11/04 08:26:08;;;;;;;3.38;1.20;;;11.80;99.90;;;;;;5050717;28;20180;-74
2022/11/04 08:28:34;;;;;;;4.10;1.50;;;11.80;99.90;;;;;;5044707;28;20170;-76
2022/11/04 08:31:01;;;;;;;2.83;1.38;;;11.90;99.90;;;;;;5043910;28;20178;-75
2022/11/04 08:33:28;;;;;;;3.88;1.40;;;12.00;99.90;;;;;;5061433;28;20185;-76
2022/11/04 08:36:01;;;;;;;3.53;1.35;;;12.00;99.90;;;;;;5044772;28;20185;-76
2022/11/04 08:38:28;;;;;;;2.25;1.02;;;12.00;99.90;;;;;;5059448;28;20196;-76
2022/11/04 08:40:58;;;;;;;2.00;1.33;;;12.10;99.90;;;;;;5048037;28;20421;-75
2022/11/04 08:43:24;;;;;;;2.85;1.35;;;12.20;99.90;;;;;;5033476;28;20205;-75
2022/11/04 08:45:51;;;;;;;2.90;1.45;;;12.30;99.90;;;;;;5042138;28;20241;-76
2022/11/04 08:48:19;;;;;;;3.95;1.45;;;12.30;99.90;;;;;;5024767;28;20218;-75
2022/11/04 08:50:54;;;;;;;3.75;1.30;;;12.50;99.90;;;;;;5022645;28;20189;-75
2022/11/04 08:53:22;;;;;;;3.72;1.50;;;12.50;99.90;;;;;;5042946;28;20182;-75
2022/11/04 08:55:48;;;;;;;4.43;1.30;;;12.60;99.90;;;;;;5041428;28;20206;-75
2022/11/04 08:58:14;;;;;;;3.78;1.30;;;12.80;99.90;;;;;;5043751;28;20284;-75
2022/11/04 09:00:40;;;;;;;2.25;0.98;;;12.80;99.90;;;;;;5030804;28;20210;-75
2022/11/04 09:03:07;;;;;;;2.78;1.50;;;12.90;99.90;;;;;;5037803;28;20208;-74
2022/11/04 09:05:46;;;;;;;2.42;1.30;;;13.00;99.90;;;;;;5049780;28;20179;-75
2022/11/04 09:08:16;;;;;;;2.10;1.10;;;13.20;99.90;;;;;;5039305;28;20259;-75
2022/11/04 09:10:43;;;;;;;2.22;1.10;;;13.20;99.90;;;;;;5034968;28;20202;-77
2022/11/04 09:13:10;;;;;;;5.75;1.20;;;13.30;99.90;;;;;;5039976;28;20182;-76
2022/11/04 09:15:36;;;;;;;3.55;1.33;;;13.20;99.90;;;;;;5027394;28;20178;-75
2022/11/04 09:18:02;;;;;;;2.72;1.20;;;13.30;99.90;;;;;;5017101;28;20219;-76
2022/11/04 09:20:33;;;;;;;2.47;1.40;;;13.30;99.90;;;;;;5034363;28;20225;-76
2022/11/04 09:23:01;;;;;;;2.03;1.00;;;13.20;99.90;;;;;;5037801;28;20205;-76
2022/11/04 09:25:29;;;;;;;3.17;1.10;;;13.20;99.90;;;;;;5050954;28;20230;-77
2022/11/04 09:27:55;;;;;;;4.00;1.20;;;13.30;99.90;;;;;;5045060;28;20194;-75
2022/11/04 09:30:20;;;;;;;1.85;1.00;;;13.40;99.90;;;;;;5020779;28;20178;-77
2022/11/04 09:32:46;;;;;;;5.38;1.30;;;13.60;99.90;;;;;;5025109;28;20186;-75
2022/11/04 09:35:11;;;;;;;3.10;1.23;;;13.80;99.90;;;;;;5017525;28;20178;-76
2022/11/04 09:37:37;;;;;;;4.85;1.42;;;14.00;99.90;;;;;;5025192;28;20201;-75
2022/11/04 09:40:05;;;;;;;2.92;0.93;;;14.40;99.90;;;;;;5035597;28;20166;-75
2022/11/04 09:43:15;;;;;;;2.80;1.15;;;14.70;99.90;;;;;;5033431;28;20201;-76
2022/11/04 09:45:42;;;;;;;4.90;1.13;;;14.90;99.90;;;;;;5018662;28;20215;-75
2022/11/04 09:48:20;;;;;;;2.15;0.90;;;15.00;99.90;;;;;;5026879;28;20180;-76
2022/11/04 09:50:52;;;;;;;2.75;0.98;;;15.10;99.90;;;;;;5074318;28;20173;-75
2022/11/04 09:53:34;;;;;;;1.65;0.90;;;15.00;99.90;;;;;;5053495;28;20178;-76
2022/11/04 09:56:04;;;;;;;1.42;0.70;;;15.10;99.90;;;;;;5036274;28;20220;-75
2022/11/04 09:58:35;;;;;;;1.95;0.80;;;15.10;99.90;;;;;;5053156;28;20204;-76
2022/11/04 10:01:30;;;;;;;1.40;0.88;;;15.00;99.90;;;;;;5053031;28;20198;-74
2022/11/04 10:04:17;;;;;;;2.85;0.90;;;15.10;99.90;;;;;;5044049;28;20189;-76
2022/11/04 10:06:42;;;;;;;3.53;1.00;;;15.10;99.90;;;;;;5034213;28;20208;-75
2022/11/04 10:09:24;;;;;;;3.05;0.90;;;15.10;99.90;;;;;;5067029;28;20341;-75
2022/11/04 10:12:28;;;;;;;2.88;0.90;;;15.00;99.90;;;;;;5065391;28;20213;-76
2022/11/04 10:15:20;;;;;;;1.70;0.70;;;14.90;99.90;;;;;;5016545;28;20178;-75
2022/11/04 10:18:14;;;;;;;2.00;0.80;;;14.90;99.90;;;;;;5034889;28;20248;-76
2022/11/04 10:21:10;;;;;;;1.63;0.82;;;14.90;99.90;;;;;;5025437;28;20209;-75
2022/11/04 10:23:44;;;;;;;2.03;0.82;;;14.90;99.90;;;;;;5017897;28;20205;-75
2022/11/04 10:26:19;;;;;;;5.45;1.10;;;14.90;99.90;;;;;;5045876;28;20284;-76
2022/11/04 10:28:56;;;;;;;2.10;0.93;;;14.90;99.90;;;;;;5051723;28;20241;-76
2022/11/04 10:31:25;;;;;;;3.00;1.20;;;14.90;99.90;;;;;;5043913;28;20198;-76
2022/11/04 10:34:02;;;;;;;4.30;1.25;;;14.90;99.90;;;;;;5052209;28;20202;-75
2022/11/04 10:36:29;;;;;;;1.90;0.90;;;14.90;99.90;;;;;;5016245;28;20239;-77
2022/11/04 10:38:58;;;;;;;1.00;0.63;;;14.80;99.90;;;;;;5033431;28;20264;-76
2022/11/04 10:41:23;;;;;;;3.20;1.20;;;14.80;99.90;;;;;;5035392;28;20194;-75
2022/11/04 10:44:01;;;;;;;1.58;0.80;;;14.80;99.90;;;;;;5046246;28;20175;-75
2022/11/04 10:46:36;;;;;;;1.98;0.80;;;14.80;99.90;;;;;;5033615;28;20288;-76
2022/11/04 10:49:19;;;;;;;2.50;1.20;;;14.80;99.90;;;;;;5034494;28;20214;-77
2022/11/04 10:51:47;;;;;;;2.50;1.17;;;14.80;99.90;;;;;;5036025;28;20177;-77
2022/11/04 10:54:12;;;;;;;2.28;1.30;;;14.90;99.90;;;;;;5035812;28;20178;-76
2022/11/04 10:56:46;;;;;;;1.75;0.90;;;14.90;99.90;;;;;;5018205;28;20197;-77
2022/11/04 10:59:26;;;;;;;2.88;0.70;;;14.90;99.90;;;;;;5050913;28;20189;-76
2022/11/04 11:02:02;;;;;;;3.58;1.10;;;14.80;99.90;;;;;;5019078;28;20206;-76
2022/11/04 11:04:33;;;;;;;2.55;0.80;;;14.90;99.90;;;;;;5028525;28;20184;-76
2022/11/04 11:07:04;;;;;;;1.88;0.90;;;14.80;99.90;;;;;;5068426;28;20194;-76
2022/11/04 11:09:55;;;;;;;1.90;0.80;;;14.80;99.90;;;;;;5016022;28;20171;-76
2022/11/04 11:12:29;;;;;;;2.38;1.00;;;14.80;99.90;;;;;;5022435;28;20182;-76
2022/11/04 11:14:57;;;;;;;1.00;0.60;;;14.80;99.90;;;;;;5032515;28;20182;-77
2022/11/04 11:17:36;;;;;;;1.63;0.85;;;14.90;99.90;;;;;;5020377;28;20186;-75
2022/11/04 11:20:22;;;;;;;1.05;0.70;;;14.90;99.90;;;;;;5035152;28;20213;-77
2022/11/04 11:22:50;;;;;;;2.47;0.82;;;15.10;99.90;;;;;;5026111;28;20188;-77
2022/11/04 11:25:29;;;;;;;0.93;0.68;;;15.40;99.90;;;;;;5032382;28;20711;-76
2022/11/04 11:28:11;;;;;;;2.88;0.80;;;15.50;99.90;;;;;;5023782;28;20201;-76
2022/11/04 11:30:52;;;;;;;4.88;0.77;;;15.60;99.90;;;;;;5024490;28;20201;-77
2022/11/04 11:33:28;;;;;;;2.58;0.75;;;15.60;99.90;;;;;;5028137;28;20198;-77
2022/11/04 11:36:10;;;;;;;1.17;0.70;;;15.60;99.90;;;;;;5014226;28;20171;-77
2022/11/04 11:38:37;;;;;;;1.83;0.80;;;15.60;99.90;;;;;;5048202;28;20186;-77
2022/11/04 11:41:17;;;;;;;3.28;0.73;;;15.60;99.90;;;;;;5034222;28;20206;-77
2022/11/04 11:43:48;;;;;;;3.20;0.70;;;15.60;99.90;;;;;;5050975;28;20166;-76
2022/11/04 11:46:30;;;;;;;1.50;0.80;;;15.50;99.90;;;;;;5028254;28;20171;-77
2022/11/04 11:49:02;;;;;;;1.20;0.70;;;15.50;99.90;;;;;;5020091;28;20213;-76
2022/11/04 11:51:34;;;;;;;1.98;0.70;;;15.50;99.90;;;;;;5031752;28;20191;-76
2022/11/04 11:54:17;;;;;;;1.17;0.75;;;15.40;99.90;;;;;;5014753;28;20201;-76
2022/11/04 11:56:51;;;;;;;2.08;0.70;;;15.40;99.90;;;;;;5034105;28;20182;-76
2022/11/04 11:59:33;;;;;;;2.28;0.80;;;15.40;99.90;;;;;;5020256;28;20192;-76
2022/11/04 12:02:29;;;;;;;1.88;0.70;;;15.40;99.90;;;;;;5014814;28;20217;-76
2022/11/04 12:04:57;;;;;;;1.60;0.60;;;15.40;99.90;;;;;;5030153;28;20175;-76
2022/11/04 12:07:31;;;;;;;0.75;0.50;;;15.40;99.90;;;;;;5036397;28;20170;-76
2022/11/04 12:10:32;;;;;;;1.13;0.70;;;15.40;99.90;;;;;;5025980;28;20198;-77
2022/11/04 12:13:03;;;;;;;1.35;0.65;;;15.50;99.90;;;;;;5051295;28;20220;-72
2022/11/04 12:15:59;;;;;;;1.75;0.65;;;15.50;99.90;;;;;;5050273;28;20212;-74
2022/11/04 12:18:47;;;;;;;1.25;0.60;;;15.40;99.90;;;;;;5030780;28;20182;-72
2022/11/04 12:21:18;;;;;;;0.68;0.50;;;15.40;99.90;;;;;;5034875;28;20337;-73
2022/11/04 12:23:52;;;;;;;0.93;0.52;;;15.40;99.90;;;;;;5023207;28;20192;-73
2022/11/04 12:26:30;;;;;;;1.92;0.90;;;15.40;99.90;;;;;;5042924;28;20169;-73
2022/11/04 12:29:08;;;;;;;2.17;0.70;;;15.30;99.90;;;;;;5054683;28;20190;-73
2022/11/04 12:31:49;;;;;;;1.60;0.80;;;15.20;99.90;;;;;;5032553;28;20178;-73
2022/11/04 12:34:40;;;;;;;1.20;0.80;;;15.10;99.90;;;;;;5050895;28;20189;-74
2022/11/04 12:37:19;;;;;;;1.65;0.70;;;15.10;99.90;;;;;;5046554;28;20334;-73
2022/11/04 12:40:14;;;;;;;2.00;0.70;;;15.00;99.90;;;;;;5070574;28;20166;-72
2022/11/04 12:42:42;;;;;;;1.42;0.60;;;14.90;99.90;;;;;;5055487;28;20217;-73
2022/11/04 12:45:23;;;;;;;1.88;0.60;;;14.90;99.90;;;;;;5042639;28;20178;-74
2022/11/04 12:48:04;;;;;;;1.70;0.52;;;15.10;99.90;;;;;;5029423;28;20182;-74
2022/11/04 12:51:15;;;;;;;0.88;0.60;;;15.30;99.90;;;;;;5037697;28;20166;-73
2022/11/04 12:53:47;;;;;;;1.30;0.65;;;15.60;99.90;;;;;;5013297;28;20214;-73
2022/11/04 12:56:25;;;;;;;2.20;1.00;;;15.70;99.90;;;;;;5048964;28;20204;-73
2022/11/04 12:59:19;;;;;;;3.08;1.02;;;15.70;99.90;;;;;;5074197;28;20235;-75
2022/11/04 13:01:52;;;;;;;2.28;0.98;;;15.70;99.90;;;;;;5039178;28;20198;-74
2022/11/04 13:04:27;;;;;;;1.83;0.90;;;15.70;99.90;;;;;;5027170;28;20174;-74
2022/11/04 13:07:00;;;;;;;1.20;0.63;;;15.70;99.90;;;;;;5022821;28;20185;-73
2022/11/04 13:09:38;;;;;;;2.78;0.70;;;15.70;99.90;;;;;;5050085;28;20221;-74
2022/11/04 13:12:10;;;;;;;1.73;0.70;;;15.60;99.90;;;;;;5033812;28;20186;-74
2022/11/04 13:14:41;;;;;;;1.92;0.80;;;15.60;99.90;;;;;;5042569;28;20182;-74
2022/11/04 13:17:12;;;;;;;2.20;0.65;;;15.60;99.90;;;;;;5047363;28;20203;-74
2022/11/04 13:19:53;;;;;;;3.00;1.00;;;15.50;99.90;;;;;;5030532;28;20249;-74
2022/11/04 13:22:27;;;;;;;2.40;0.75;;;15.50;99.90;;;;;;5036730;28;20282;-74
2022/11/04 13:25:04;;;;;;;1.67;0.70;;;15.40;99.90;;;;;;5041316;28;20459;-73
2022/11/04 13:27:35;;;;;;;2.25;0.80;;;15.30;99.90;;;;;;5047066;28;20162;-74
2022/11/04 13:30:14;;;;;;;4.07;0.88;;;15.20;99.90;;;;;;5036088;28;20203;-74
2022/11/04 13:32:58;;;;;;;1.35;0.60;;;15.10;99.90;;;;;;5024903;28;20185;-75
2022/11/04 13:35:48;;;;;;;1.65;0.55;;;15.10;99.90;;;;;;5028526;28;20190;-73
2022/11/04 13:38:19;;;;;;;1.23;0.50;;;15.00;99.90;;;;;;5034615;28;20163;-74
2022/11/04 13:41:27;;;;;;;1.58;0.80;;;15.00;99.90;;;;;;5052326;28;20213;-73
2022/11/04 13:43:57;;;;;;;1.83;0.80;;;15.00;99.90;;;;;;5038914;28;20178;-74
2022/11/04 13:46:29;;;;;;;1.27;0.60;;;14.90;99.90;;;;;;5025443;28;20178;-74
2022/11/04 13:49:05;;;;;;;2.70;0.80;;;14.90;99.90;;;;;;5030533;28;20190;-72